EJU32UQ LPPT-LFBD
Flight info
| Callsign | EJU32UQ |
|---|---|
| Flight time | 1h 24m |
| Altitude | 36000 |
| Route | IXIDA DCT PINOX DCT RIVRO DCT TOSDI DCT ZMR DCT NEA DCT DGO L176 SSN DCT URUNA DCT BTZ DCT VAVIX |
| Aircraft | A21N/M-SDE2E3FGHIJ1RWXYZ/LB1 |
Departure
| Time | 2026-04-28 18:21 |
|---|---|
| Airport | Lisbon Humberto Delgado Airport (LPPT) |
Arrival
| Time | 2026-04-28 19:46 |
|---|---|
| Airport | Bordeaux–Mérignac Airport (LFBD) |
| Time | Latitude | Longitude | Altitude | Speed | Heading |
|---|---|---|---|---|---|
| 2026-04-28 17:44 | 38.76599 | -9.13412 | 357 ft | 0 kts | 73° |
| 2026-04-28 18:13 | 38.76592 | -9.13437 | 353 ft | 4 kts | 59° |
| 2026-04-28 18:14 | 38.76575 | -9.13459 | 360 ft | 4 kts | 16° |
| 2026-04-28 18:14 | 38.76561 | -9.13460 | 355 ft | 0 kts | 343° |
| 2026-04-28 18:17 | 38.76573 | -9.13465 | 351 ft | 3 kts | 344° |
| 2026-04-28 18:18 | 38.76606 | -9.13477 | 351 ft | 6 kts | 344° |
| 2026-04-28 18:18 | 38.76644 | -9.13516 | 351 ft | 9 kts | 280° |
| 2026-04-28 18:18 | 38.76636 | -9.13604 | 351 ft | 11 kts | 259° |
| 2026-04-28 18:18 | 38.76624 | -9.13677 | 351 ft | 13 kts | 258° |
| 2026-04-28 18:19 | 38.76596 | -9.13847 | 357 ft | 16 kts | 258° |
| 2026-04-28 18:19 | 38.76568 | -9.13992 | 351 ft | 18 kts | 240° |
| 2026-04-28 18:19 | 38.76495 | -9.14121 | 357 ft | 16 kts | 258° |
| 2026-04-28 18:19 | 38.76511 | -9.14229 | 353 ft | 11 kts | 293° |
| 2026-04-28 18:20 | 38.76543 | -9.14324 | 352 ft | 12 kts | 293° |
| 2026-04-28 18:20 | 38.76590 | -9.14414 | 337 ft | 14 kts | 356° |
| 2026-04-28 18:20 | 38.76644 | -9.14387 | 354 ft | 8 kts | 22° |
| 2026-04-28 18:20 | 38.76812 | -9.14299 | 350 ft | 58 kts | 22° |
| 2026-04-28 18:21 | 38.77388 | -9.13993 | 368 ft | 119 kts | 22° |
| 2026-04-28 18:21 | 38.78316 | -9.13495 | 374 ft | 168 kts | 22° |
| 2026-04-28 18:21 | 38.79426 | -9.12877 | 811 ft | 171 kts | 22° |
| 2026-04-28 18:21 | 38.80459 | -9.12164 | 1538 ft | 167 kts | 34° |
| 2026-04-28 18:22 | 38.81369 | -9.11280 | 2221 ft | 164 kts | 29° |
| 2026-04-28 18:22 | 38.82396 | -9.10585 | 2876 ft | 170 kts | 25° |
| 2026-04-28 18:22 | 38.83494 | -9.09862 | 3445 ft | 188 kts | 26° |
| 2026-04-28 18:22 | 38.84716 | -9.09010 | 3914 ft | 211 kts | 27° |
| 2026-04-28 18:23 | 38.86055 | -9.08054 | 4500 ft | 228 kts | 28° |
| 2026-04-28 18:23 | 38.87480 | -9.07024 | 5103 ft | 245 kts | 29° |
| 2026-04-28 18:23 | 38.89040 | -9.05894 | 5553 ft | 268 kts | 32° |
| 2026-04-28 18:23 | 38.90581 | -9.04416 | 6138 ft | 283 kts | 43° |
| 2026-04-28 18:24 | 38.92052 | -9.02703 | 6938 ft | 289 kts | 44° |
| 2026-04-28 18:24 | 38.93035 | -9.01541 | 7502 ft | 291 kts | 44° |
| 2026-04-28 18:24 | 38.95045 | -8.99174 | 8646 ft | 296 kts | 43° |
| 2026-04-28 18:24 | 38.96576 | -8.97378 | 9461 ft | 300 kts | 43° |
| 2026-04-28 18:25 | 38.98131 | -8.95555 | 10186 ft | 309 kts | 43° |
| 2026-04-28 18:25 | 38.99775 | -8.93637 | 10605 ft | 329 kts | 43° |
| 2026-04-28 18:25 | 39.01511 | -8.91612 | 11095 ft | 343 kts | 43° |
| 2026-04-28 18:26 | 39.05096 | -8.87422 | 12640 ft | 352 kts | 43° |
| 2026-04-28 18:26 | 39.06921 | -8.85286 | 13420 ft | 356 kts | 43° |
| 2026-04-28 18:26 | 39.08762 | -8.83133 | 14152 ft | 360 kts | 43° |
| 2026-04-28 18:26 | 39.10625 | -8.80950 | 14866 ft | 364 kts | 43° |
| 2026-04-28 18:27 | 39.12508 | -8.78736 | 15573 ft | 369 kts | 43° |
| 2026-04-28 18:27 | 39.14411 | -8.76503 | 16259 ft | 372 kts | 43° |
| 2026-04-28 18:27 | 39.16331 | -8.74235 | 16930 ft | 376 kts | 44° |
| 2026-04-28 18:27 | 39.18132 | -8.71769 | 17596 ft | 380 kts | 49° |
| 2026-04-28 18:28 | 39.19884 | -8.69201 | 18234 ft | 383 kts | 50° |
| 2026-04-28 18:28 | 39.21652 | -8.66600 | 18871 ft | 387 kts | 50° |
| 2026-04-28 18:28 | 39.23433 | -8.63983 | 19481 ft | 390 kts | 50° |
| 2026-04-28 18:28 | 39.25229 | -8.61342 | 20074 ft | 393 kts | 50° |
| 2026-04-28 18:29 | 39.27040 | -8.58678 | 20642 ft | 397 kts | 50° |
| 2026-04-28 18:29 | 39.28870 | -8.55993 | 21203 ft | 400 kts | 50° |
| 2026-04-28 18:29 | 39.30715 | -8.53286 | 21736 ft | 404 kts | 50° |
| 2026-04-28 18:29 | 39.32576 | -8.50548 | 22268 ft | 407 kts | 50° |
| 2026-04-28 18:30 | 39.34421 | -8.47833 | 22791 ft | 409 kts | 50° |
| 2026-04-28 18:30 | 39.35692 | -8.45959 | 23144 ft | 411 kts | 50° |
| 2026-04-28 18:30 | 39.38226 | -8.42217 | 23816 ft | 415 kts | 50° |
| 2026-04-28 18:30 | 39.40108 | -8.39438 | 24289 ft | 418 kts | 50° |
| 2026-04-28 18:31 | 39.42030 | -8.36597 | 24763 ft | 421 kts | 50° |
| 2026-04-28 18:31 | 39.43964 | -8.33734 | 25203 ft | 424 kts | 50° |
| 2026-04-28 18:31 | 39.45909 | -8.30856 | 25627 ft | 427 kts | 50° |
| 2026-04-28 18:31 | 39.47869 | -8.27950 | 26070 ft | 430 kts | 50° |
| 2026-04-28 18:32 | 39.49838 | -8.25026 | 26488 ft | 433 kts | 50° |
| 2026-04-28 18:32 | 39.51823 | -8.22081 | 26894 ft | 436 kts | 50° |
| 2026-04-28 18:32 | 39.53820 | -8.19113 | 27274 ft | 438 kts | 50° |
| 2026-04-28 18:32 | 39.55824 | -8.16126 | 27656 ft | 441 kts | 50° |
| 2026-04-28 18:33 | 39.57841 | -8.13122 | 27997 ft | 443 kts | 50° |
| 2026-04-28 18:33 | 39.59871 | -8.10094 | 28343 ft | 446 kts | 50° |
| 2026-04-28 18:33 | 39.61911 | -8.07051 | 28677 ft | 448 kts | 50° |
| 2026-04-28 18:33 | 39.63960 | -8.03995 | 29003 ft | 451 kts | 50° |
| 2026-04-28 18:34 | 39.66039 | -8.00936 | 29317 ft | 453 kts | 49° |
| 2026-04-28 18:34 | 39.68180 | -7.97909 | 29619 ft | 456 kts | 48° |
| 2026-04-28 18:34 | 39.70328 | -7.94872 | 29910 ft | 458 kts | 48° |
| 2026-04-28 18:34 | 39.72495 | -7.91814 | 30208 ft | 461 kts | 49° |
| 2026-04-28 18:35 | 39.74670 | -7.88743 | 30500 ft | 463 kts | 48° |
| 2026-04-28 18:35 | 39.76853 | -7.85662 | 30800 ft | 465 kts | 48° |
| 2026-04-28 18:35 | 39.79045 | -7.82562 | 31078 ft | 467 kts | 48° |
| 2026-04-28 18:35 | 39.81249 | -7.79438 | 31353 ft | 469 kts | 48° |
| 2026-04-28 18:36 | 39.83461 | -7.76301 | 31625 ft | 471 kts | 48° |
| 2026-04-28 18:36 | 39.85679 | -7.73155 | 31908 ft | 472 kts | 49° |
| 2026-04-28 18:36 | 39.87901 | -7.70001 | 32225 ft | 473 kts | 48° |
| 2026-04-28 18:36 | 39.90123 | -7.66848 | 32563 ft | 472 kts | 48° |
| 2026-04-28 18:37 | 39.92336 | -7.63697 | 32883 ft | 471 kts | 48° |
| 2026-04-28 18:37 | 39.94549 | -7.60547 | 33174 ft | 472 kts | 48° |
| 2026-04-28 18:37 | 39.96762 | -7.57390 | 33467 ft | 471 kts | 48° |
| 2026-04-28 18:37 | 39.98968 | -7.54236 | 33742 ft | 471 kts | 49° |
| 2026-04-28 18:38 | 40.01172 | -7.51086 | 34018 ft | 470 kts | 48° |
| 2026-04-28 18:38 | 40.03374 | -7.47935 | 34284 ft | 469 kts | 48° |
| 2026-04-28 18:38 | 40.05572 | -7.44784 | 34532 ft | 469 kts | 48° |
| 2026-04-28 18:38 | 40.07768 | -7.41638 | 34771 ft | 469 kts | 48° |
| 2026-04-28 18:39 | 40.09959 | -7.38491 | 35016 ft | 468 kts | 48° |
| 2026-04-28 18:39 | 40.12146 | -7.35342 | 35234 ft | 468 kts | 48° |
| 2026-04-28 18:39 | 40.14335 | -7.32192 | 35445 ft | 468 kts | 48° |
| 2026-04-28 18:39 | 40.16519 | -7.29045 | 35647 ft | 468 kts | 49° |
| 2026-04-28 18:40 | 40.18707 | -7.25895 | 35811 ft | 468 kts | 49° |
| 2026-04-28 18:40 | 40.23069 | -7.19595 | 35857 ft | 466 kts | 49° |
| 2026-04-28 18:41 | 40.27409 | -7.13316 | 35850 ft | 465 kts | 49° |
| 2026-04-28 18:41 | 40.32032 | -7.07461 | 35842 ft | 466 kts | 41° |
| 2026-04-28 18:42 | 40.36905 | -7.01830 | 35842 ft | 467 kts | 41° |
| 2026-04-28 18:42 | 40.41778 | -6.96197 | 35839 ft | 467 kts | 41° |
| 2026-04-28 18:43 | 40.46641 | -6.90547 | 35840 ft | 467 kts | 41° |
| 2026-04-28 18:43 | 40.51498 | -6.84879 | 35839 ft | 467 kts | 41° |
| 2026-04-28 18:44 | 40.56358 | -6.79216 | 35839 ft | 467 kts | 41° |
| 2026-04-28 18:44 | 40.63640 | -6.70697 | 35840 ft | 467 kts | 42° |
| 2026-04-28 18:45 | 40.68488 | -6.65015 | 35839 ft | 466 kts | 41° |
| 2026-04-28 18:45 | 40.73330 | -6.59323 | 35838 ft | 466 kts | 42° |
| 2026-04-28 18:46 | 40.78171 | -6.53631 | 35839 ft | 466 kts | 42° |
| 2026-04-28 18:46 | 40.83004 | -6.47924 | 35844 ft | 466 kts | 42° |
| 2026-04-28 18:47 | 40.87839 | -6.42213 | 35842 ft | 466 kts | 42° |
| 2026-04-28 18:47 | 40.92666 | -6.36496 | 35839 ft | 466 kts | 42° |
| 2026-04-28 18:48 | 40.97495 | -6.30758 | 35846 ft | 467 kts | 42° |
| 2026-04-28 18:48 | 41.02324 | -6.25018 | 35846 ft | 467 kts | 42° |
| 2026-04-28 18:49 | 41.05559 | -6.21161 | 35842 ft | 467 kts | 42° |
| 2026-04-28 18:49 | 41.11990 | -6.13480 | 35857 ft | 467 kts | 42° |
| 2026-04-28 18:50 | 41.16818 | -6.07700 | 35855 ft | 468 kts | 42° |
| 2026-04-28 18:50 | 41.21653 | -6.01905 | 35849 ft | 468 kts | 42° |
| 2026-04-28 18:51 | 41.26487 | -5.96089 | 35851 ft | 469 kts | 41° |
| 2026-04-28 18:51 | 41.31321 | -5.90266 | 35856 ft | 469 kts | 41° |
| 2026-04-28 18:52 | 41.36157 | -5.84434 | 35869 ft | 469 kts | 41° |
| 2026-04-28 18:52 | 41.40989 | -5.78583 | 35859 ft | 470 kts | 41° |
| 2026-04-28 18:53 | 41.45828 | -5.72719 | 35862 ft | 470 kts | 42° |
| 2026-04-28 18:53 | 41.50654 | -5.66839 | 35861 ft | 470 kts | 44° |
| 2026-04-28 18:54 | 41.53975 | -5.61133 | 35859 ft | 470 kts | 63° |
| 2026-04-28 18:54 | 41.57089 | -5.51915 | 35875 ft | 469 kts | 68° |
| 2026-04-28 18:55 | 41.59268 | -5.45227 | 35868 ft | 469 kts | 67° |
| 2026-04-28 18:55 | 41.62330 | -5.35960 | 35880 ft | 469 kts | 67° |
| 2026-04-28 18:56 | 41.64542 | -5.29281 | 35882 ft | 469 kts | 67° |
| 2026-04-28 18:56 | 41.67169 | -5.21293 | 35880 ft | 469 kts | 67° |
| 2026-04-28 18:57 | 41.69794 | -5.13311 | 35880 ft | 469 kts | 67° |
| 2026-04-28 18:57 | 41.72397 | -5.05373 | 35881 ft | 469 kts | 67° |
| 2026-04-28 18:58 | 41.75009 | -4.97373 | 35880 ft | 469 kts | 67° |
| 2026-04-28 18:58 | 41.77621 | -4.89353 | 35881 ft | 470 kts | 67° |
| 2026-04-28 18:59 | 41.78929 | -4.85329 | 35985 ft | 471 kts | 67° |
| 2026-04-28 18:59 | 41.80231 | -4.81312 | 36167 ft | 471 kts | 67° |
| 2026-04-28 18:59 | 41.81536 | -4.77286 | 36331 ft | 471 kts | 67° |
| 2026-04-28 18:59 | 41.82838 | -4.73260 | 36474 ft | 471 kts | 67° |
| 2026-04-28 19:00 | 41.84143 | -4.69225 | 36664 ft | 470 kts | 67° |
| 2026-04-28 19:00 | 41.85437 | -4.65208 | 36899 ft | 468 kts | 67° |
| 2026-04-28 19:00 | 41.86725 | -4.61212 | 37121 ft | 466 kts | 67° |
| 2026-04-28 19:00 | 41.88009 | -4.57215 | 37259 ft | 466 kts | 68° |
| 2026-04-28 19:01 | 41.89290 | -4.53221 | 37378 ft | 467 kts | 68° |
| 2026-04-28 19:01 | 41.90575 | -4.49216 | 37472 ft | 467 kts | 67° |
| 2026-04-28 19:01 | 41.93329 | -4.41311 | 37665 ft | 469 kts | 56° |
| 2026-04-28 19:02 | 41.95248 | -4.37769 | 37771 ft | 469 kts | 52° |
| 2026-04-28 19:02 | 41.97250 | -4.34300 | 37890 ft | 469 kts | 52° |
| 2026-04-28 19:02 | 42.01217 | -4.27310 | 37924 ft | 470 kts | 53° |
| 2026-04-28 19:03 | 42.05123 | -4.20258 | 37906 ft | 470 kts | 53° |
| 2026-04-28 19:03 | 42.09021 | -4.13189 | 37911 ft | 470 kts | 53° |
| 2026-04-28 19:04 | 42.12915 | -4.06117 | 37914 ft | 470 kts | 53° |
| 2026-04-28 19:04 | 42.16803 | -3.99040 | 37921 ft | 470 kts | 53° |
| 2026-04-28 19:05 | 42.20688 | -3.91945 | 37927 ft | 470 kts | 53° |
| 2026-04-28 19:05 | 42.24567 | -3.84850 | 37928 ft | 470 kts | 53° |
| 2026-04-28 19:06 | 42.27786 | -3.78947 | 37928 ft | 470 kts | 53° |
| 2026-04-28 19:06 | 42.32314 | -3.70619 | 37931 ft | 470 kts | 53° |
| 2026-04-28 19:07 | 42.36187 | -3.63494 | 37932 ft | 470 kts | 53° |
| 2026-04-28 19:07 | 42.40053 | -3.56349 | 37931 ft | 470 kts | 53° |
| 2026-04-28 19:08 | 42.43918 | -3.49190 | 37930 ft | 471 kts | 53° |
| 2026-04-28 19:08 | 42.47785 | -3.42020 | 37930 ft | 472 kts | 53° |
| 2026-04-28 19:09 | 42.51647 | -3.34834 | 37929 ft | 472 kts | 53° |
| 2026-04-28 19:09 | 42.55487 | -3.27681 | 37932 ft | 472 kts | 53° |
| 2026-04-28 19:10 | 42.59344 | -3.20471 | 37929 ft | 472 kts | 54° |
| 2026-04-28 19:10 | 42.63194 | -3.13251 | 37933 ft | 472 kts | 54° |
| 2026-04-28 19:11 | 42.67042 | -3.06021 | 37931 ft | 472 kts | 54° |
| 2026-04-28 19:11 | 42.70891 | -2.98784 | 37929 ft | 472 kts | 54° |
| 2026-04-28 19:12 | 42.74728 | -2.91533 | 37927 ft | 472 kts | 54° |
| 2026-04-28 19:12 | 42.78562 | -2.84272 | 37930 ft | 473 kts | 54° |
| 2026-04-28 19:13 | 42.82391 | -2.77009 | 37931 ft | 472 kts | 54° |
| 2026-04-28 19:13 | 42.86220 | -2.69736 | 37930 ft | 472 kts | 54° |
| 2026-04-28 19:14 | 42.90048 | -2.62443 | 37930 ft | 473 kts | 54° |
| 2026-04-28 19:14 | 42.93842 | -2.55173 | 37929 ft | 474 kts | 54° |
| 2026-04-28 19:15 | 42.97689 | -2.47805 | 37929 ft | 473 kts | 54° |
| 2026-04-28 19:15 | 43.00863 | -2.41724 | 37929 ft | 473 kts | 54° |
| 2026-04-28 19:16 | 43.05295 | -2.33194 | 37928 ft | 473 kts | 54° |
| 2026-04-28 19:16 | 43.09102 | -2.25844 | 37929 ft | 474 kts | 54° |
| 2026-04-28 19:17 | 43.12909 | -2.18481 | 37934 ft | 474 kts | 54° |
| 2026-04-28 19:17 | 43.16708 | -2.11117 | 37826 ft | 470 kts | 54° |
| 2026-04-28 19:18 | 43.18604 | -2.07444 | 36888 ft | 477 kts | 54° |
| 2026-04-28 19:18 | 43.20531 | -2.03689 | 35843 ft | 485 kts | 54° |
| 2026-04-28 19:18 | 43.22469 | -1.99914 | 35183 ft | 483 kts | 54° |
| 2026-04-28 19:18 | 43.24392 | -1.96161 | 34677 ft | 478 kts | 54° |
| 2026-04-28 19:19 | 43.26294 | -1.92456 | 34193 ft | 473 kts | 54° |
| 2026-04-28 19:19 | 43.28174 | -1.88782 | 33705 ft | 468 kts | 54° |
| 2026-04-28 19:19 | 43.30030 | -1.85142 | 33233 ft | 462 kts | 54° |
| 2026-04-28 19:19 | 43.31840 | -1.81528 | 32777 ft | 457 kts | 56° |
| 2026-04-28 19:20 | 43.33590 | -1.77926 | 32308 ft | 451 kts | 56° |
| 2026-04-28 19:20 | 43.35322 | -1.74351 | 31826 ft | 447 kts | 56° |
| 2026-04-28 19:20 | 43.37039 | -1.70811 | 31348 ft | 443 kts | 56° |
| 2026-04-28 19:20 | 43.38743 | -1.67304 | 30863 ft | 439 kts | 56° |
| 2026-04-28 19:21 | 43.40433 | -1.63844 | 30420 ft | 435 kts | 56° |
| 2026-04-28 19:21 | 43.42113 | -1.60400 | 29982 ft | 432 kts | 56° |
| 2026-04-28 19:21 | 43.43779 | -1.56973 | 29515 ft | 430 kts | 56° |
| 2026-04-28 19:21 | 43.45448 | -1.53559 | 29039 ft | 429 kts | 54° |
| 2026-04-28 19:22 | 43.47335 | -1.50408 | 28569 ft | 425 kts | 42° |
| 2026-04-28 19:22 | 43.48825 | -1.48687 | 28275 ft | 422 kts | 35° |
| 2026-04-28 19:22 | 43.52015 | -1.45574 | 27686 ft | 418 kts | 32° |
| 2026-04-28 19:22 | 43.54399 | -1.43296 | 27237 ft | 416 kts | 33° |
| 2026-04-28 19:23 | 43.56765 | -1.41001 | 26777 ft | 415 kts | 33° |
| 2026-04-28 19:23 | 43.59107 | -1.38691 | 26315 ft | 413 kts | 33° |
| 2026-04-28 19:23 | 43.61434 | -1.36381 | 25869 ft | 411 kts | 34° |
| 2026-04-28 19:23 | 43.63746 | -1.34080 | 25435 ft | 409 kts | 34° |
| 2026-04-28 19:24 | 43.66042 | -1.31787 | 25002 ft | 406 kts | 34° |
| 2026-04-28 19:24 | 43.68325 | -1.29507 | 24565 ft | 404 kts | 34° |
| 2026-04-28 19:24 | 43.70602 | -1.27234 | 24111 ft | 403 kts | 34° |
| 2026-04-28 19:24 | 43.72869 | -1.24970 | 23665 ft | 401 kts | 34° |
| 2026-04-28 19:25 | 43.75115 | -1.22717 | 23224 ft | 398 kts | 34° |
| 2026-04-28 19:25 | 43.77345 | -1.20481 | 22791 ft | 395 kts | 34° |
| 2026-04-28 19:25 | 43.79561 | -1.18259 | 22359 ft | 391 kts | 34° |
| 2026-04-28 19:25 | 43.81755 | -1.16059 | 21920 ft | 388 kts | 34° |
| 2026-04-28 19:26 | 43.83903 | -1.13897 | 21482 ft | 386 kts | 34° |
| 2026-04-28 19:26 | 43.86063 | -1.11715 | 21044 ft | 383 kts | 34° |
| 2026-04-28 19:26 | 43.88211 | -1.09548 | 20607 ft | 381 kts | 34° |
| 2026-04-28 19:26 | 43.90345 | -1.07396 | 20190 ft | 378 kts | 34° |
| 2026-04-28 19:27 | 43.92485 | -1.05236 | 19787 ft | 374 kts | 34° |
| 2026-04-28 19:27 | 43.94556 | -1.03147 | 19388 ft | 371 kts | 34° |
| 2026-04-28 19:27 | 43.96640 | -1.01050 | 19000 ft | 369 kts | 34° |
| 2026-04-28 19:27 | 43.98709 | -0.98963 | 18605 ft | 367 kts | 35° |
| 2026-04-28 19:28 | 44.00773 | -0.96878 | 18226 ft | 365 kts | 35° |
| 2026-04-28 19:28 | 44.02822 | -0.94814 | 17857 ft | 363 kts | 35° |
| 2026-04-28 19:28 | 44.04861 | -0.92744 | 17489 ft | 362 kts | 35° |
| 2026-04-28 19:28 | 44.06889 | -0.90687 | 17125 ft | 360 kts | 35° |
| 2026-04-28 19:29 | 44.08915 | -0.88641 | 16754 ft | 359 kts | 35° |
| 2026-04-28 19:29 | 44.10275 | -0.87265 | 16502 ft | 358 kts | 35° |
| 2026-04-28 19:29 | 44.12929 | -0.84574 | 16046 ft | 355 kts | 35° |
| 2026-04-28 19:29 | 44.14914 | -0.82556 | 15705 ft | 353 kts | 35° |
| 2026-04-28 19:30 | 44.16888 | -0.80548 | 15369 ft | 350 kts | 35° |
| 2026-04-28 19:30 | 44.18844 | -0.78556 | 15034 ft | 347 kts | 35° |
| 2026-04-28 19:30 | 44.20783 | -0.76566 | 14692 ft | 345 kts | 36° |
| 2026-04-28 19:30 | 44.22706 | -0.74584 | 14342 ft | 343 kts | 36° |
| 2026-04-28 19:31 | 44.24619 | -0.72621 | 14020 ft | 340 kts | 36° |
| 2026-04-28 19:31 | 44.26518 | -0.70672 | 13683 ft | 338 kts | 36° |
| 2026-04-28 19:31 | 44.28435 | -0.68797 | 13344 ft | 335 kts | 32° |
| 2026-04-28 19:31 | 44.30402 | -0.67063 | 13009 ft | 333 kts | 31° |
| 2026-04-28 19:32 | 44.32363 | -0.65363 | 12687 ft | 331 kts | 31° |
| 2026-04-28 19:32 | 44.34314 | -0.63670 | 12340 ft | 329 kts | 31° |
| 2026-04-28 19:32 | 44.36257 | -0.61988 | 12007 ft | 327 kts | 31° |
| 2026-04-28 19:32 | 44.38185 | -0.60312 | 11676 ft | 326 kts | 31° |
| 2026-04-28 19:33 | 44.40099 | -0.58644 | 11348 ft | 323 kts | 31° |
| 2026-04-28 19:33 | 44.42002 | -0.56982 | 11024 ft | 321 kts | 31° |
| 2026-04-28 19:33 | 44.43893 | -0.55332 | 10700 ft | 319 kts | 31° |
| 2026-04-28 19:33 | 44.45773 | -0.53686 | 10381 ft | 318 kts | 32° |
| 2026-04-28 19:34 | 44.47638 | -0.52050 | 10061 ft | 315 kts | 31° |
| 2026-04-28 19:34 | 44.49484 | -0.50436 | 9764 ft | 309 kts | 32° |
| 2026-04-28 19:34 | 44.51279 | -0.48864 | 9565 ft | 299 kts | 32° |
| 2026-04-28 19:34 | 44.53019 | -0.47337 | 9250 ft | 294 kts | 32° |
| 2026-04-28 19:35 | 44.54754 | -0.45865 | 8905 ft | 290 kts | 27° |
| 2026-04-28 19:35 | 44.56646 | -0.44956 | 8549 ft | 287 kts | 12° |
| 2026-04-28 19:35 | 44.58610 | -0.44419 | 8234 ft | 286 kts | 10° |
| 2026-04-28 19:35 | 44.60573 | -0.43912 | 7920 ft | 287 kts | 10° |
| 2026-04-28 19:36 | 44.62527 | -0.43399 | 7620 ft | 285 kts | 11° |
| 2026-04-28 19:36 | 44.64477 | -0.42876 | 7319 ft | 285 kts | 11° |
| 2026-04-28 19:36 | 44.66424 | -0.42346 | 7013 ft | 284 kts | 11° |
| 2026-04-28 19:36 | 44.68348 | -0.41814 | 6693 ft | 280 kts | 11° |
| 2026-04-28 19:37 | 44.70245 | -0.41291 | 6391 ft | 276 kts | 11° |
| 2026-04-28 19:37 | 44.70856 | -0.41123 | 6292 ft | 276 kts | 11° |
| 2026-04-28 19:37 | 44.74032 | -0.40242 | 5788 ft | 277 kts | 11° |
| 2026-04-28 19:37 | 44.75911 | -0.39722 | 5488 ft | 273 kts | 11° |
| 2026-04-28 19:38 | 44.77761 | -0.39203 | 5205 ft | 270 kts | 12° |
| 2026-04-28 19:38 | 44.79574 | -0.38692 | 4940 ft | 268 kts | 12° |
| 2026-04-28 19:38 | 44.81397 | -0.38178 | 4674 ft | 267 kts | 12° |
| 2026-04-28 19:38 | 44.83201 | -0.37670 | 4459 ft | 261 kts | 12° |
| 2026-04-28 19:39 | 44.84933 | -0.37186 | 4415 ft | 246 kts | 12° |
| 2026-04-28 19:39 | 44.86559 | -0.36731 | 4475 ft | 234 kts | 12° |
| 2026-04-28 19:39 | 44.88157 | -0.36315 | 4549 ft | 234 kts | 7° |
| 2026-04-28 19:39 | 44.89760 | -0.36549 | 4473 ft | 235 kts | 338° |
| 2026-04-28 19:40 | 44.91099 | -0.37855 | 4338 ft | 236 kts | 317° |
| 2026-04-28 19:40 | 44.92249 | -0.39510 | 4170 ft | 236 kts | 315° |
| 2026-04-28 19:40 | 44.93389 | -0.41163 | 3976 ft | 234 kts | 315° |
| 2026-04-28 19:40 | 44.94538 | -0.42800 | 3789 ft | 234 kts | 316° |
| 2026-04-28 19:41 | 44.95689 | -0.44422 | 3580 ft | 234 kts | 316° |
| 2026-04-28 19:41 | 44.96838 | -0.46040 | 3391 ft | 233 kts | 314° |
| 2026-04-28 19:41 | 44.97674 | -0.47982 | 3231 ft | 235 kts | 284° |
| 2026-04-28 19:41 | 44.97601 | -0.50260 | 3090 ft | 237 kts | 248° |
| 2026-04-28 19:42 | 44.96659 | -0.52136 | 2984 ft | 236 kts | 224° |
| 2026-04-28 19:42 | 44.95563 | -0.53855 | 2970 ft | 237 kts | 239° |
| 2026-04-28 19:42 | 44.95018 | -0.55188 | 2974 ft | 237 kts | 235° |
| 2026-04-28 19:42 | 44.93899 | -0.56786 | 2918 ft | 223 kts | 214° |
| 2026-04-28 19:43 | 44.92667 | -0.58009 | 2757 ft | 213 kts | 215° |
| 2026-04-28 19:43 | 44.91512 | -0.59300 | 2470 ft | 211 kts | 220° |
| 2026-04-28 19:43 | 44.90430 | -0.60675 | 2126 ft | 207 kts | 222° |
| 2026-04-28 19:43 | 44.89422 | -0.62057 | 1884 ft | 191 kts | 226° |
| 2026-04-28 19:44 | 44.88573 | -0.63360 | 1777 ft | 173 kts | 227° |
| 2026-04-28 19:44 | 44.87795 | -0.64481 | 1670 ft | 146 kts | 225° |
| 2026-04-28 19:44 | 44.87088 | -0.65469 | 1376 ft | 141 kts | 227° |
| 2026-04-28 19:44 | 44.86423 | -0.66477 | 1095 ft | 141 kts | 226° |
| 2026-04-28 19:45 | 44.85725 | -0.67438 | 841 ft | 140 kts | 224° |
| 2026-04-28 19:45 | 44.85042 | -0.68412 | 616 ft | 139 kts | 227° |
| 2026-04-28 19:45 | 44.84364 | -0.69379 | 396 ft | 138 kts | 226° |
| 2026-04-28 19:45 | 44.83693 | -0.70348 | 199 ft | 138 kts | 226° |
| 2026-04-28 19:46 | 44.83105 | -0.71192 | 166 ft | 94 kts | 225° |
| 2026-04-28 19:46 | 44.82791 | -0.71634 | 170 ft | 49 kts | 222° |
| 2026-04-28 19:46 | 44.82616 | -0.71881 | 171 ft | 23 kts | 227° |
| 2026-04-28 19:46 | 44.82516 | -0.71876 | 167 ft | 17 kts | 132° |
| 2026-04-28 19:47 | 44.82448 | -0.71753 | 168 ft | 9 kts | 122° |
| 2026-04-28 19:47 | 44.82456 | -0.71665 | 170 ft | 12 kts | 51° |
| 2026-04-28 19:47 | 44.82517 | -0.71573 | 171 ft | 14 kts | 43° |
| 2026-04-28 19:47 | 44.82590 | -0.71475 | 169 ft | 15 kts | 44° |
| 2026-04-28 19:48 | 44.82669 | -0.71365 | 167 ft | 17 kts | 45° |
| 2026-04-28 19:48 | 44.82755 | -0.71245 | 164 ft | 18 kts | 45° |
| 2026-04-28 19:48 | 44.82846 | -0.71116 | 165 ft | 20 kts | 45° |
| 2026-04-28 19:48 | 44.82927 | -0.71000 | 167 ft | 9 kts | 46° |
| 2026-04-28 19:49 | 44.82937 | -0.70904 | 168 ft | 12 kts | 106° |
| 2026-04-28 19:49 | 44.82910 | -0.70784 | 168 ft | 14 kts | 107° |
| 2026-04-28 19:49 | 44.82880 | -0.70644 | 168 ft | 16 kts | 107° |
| 2026-04-28 19:49 | 44.82846 | -0.70486 | 168 ft | 18 kts | 107° |
| 2026-04-28 19:50 | 44.82769 | -0.70134 | 168 ft | 20 kts | 107° |
| 2026-04-28 19:50 | 44.82730 | -0.69946 | 168 ft | 20 kts | 106° |
| 2026-04-28 19:50 | 44.82705 | -0.69822 | 168 ft | 7 kts | 101° |
| 2026-04-28 19:51 | 44.82721 | -0.69753 | 168 ft | 8 kts | 38° |
| 2026-04-28 19:51 | 44.82757 | -0.69763 | 168 ft | 6 kts | 302° |
| 2026-04-28 19:51 | 44.82787 | -0.69781 | 168 ft | 3 kts | 3° |
| 2026-04-28 19:51 | 44.82809 | -0.69774 | 168 ft | 4 kts | 15° |
| 2026-04-28 19:52 | 44.82835 | -0.69764 | 168 ft | 2 kts | 16° |
| 2026-04-28 19:52 | 44.82842 | -0.69761 | 168 ft | 1 kts | 15° |
| 2026-04-28 19:52 | 44.82845 | -0.69760 | 168 ft | 0 kts | 15° |